Time;durP1;ratioP1;P1;durP2;ratioP2;P2;SDS_P1;SDS_P2;PMS_P1;PMS_P2;Temp;Humidity;BMP_temperature;BMP_pressure;BME280_temperature;BME280_humidity;BME280_pressure;Samples;Min_cycle;Max_cycle;Signal;HPM_P1;HPM_P2
2023/04/22 00:00:32;;;;;;;5.50;3.20;;;9.50;99.90;;;;;;7564335;19;20018;-72
2023/04/22 00:03:04;;;;;;;4.80;2.97;;;9.40;99.90;;;;;;7554686;19;20154;-72
2023/04/22 00:05:37;;;;;;;7.97;3.75;;;9.40;99.90;;;;;;7565024;19;20025;-72
2023/04/22 00:08:09;;;;;;;3.53;2.60;;;9.30;99.90;;;;;;7554745;19;20684;-72
2023/04/22 00:10:41;;;;;;;5.40;3.88;;;9.30;99.90;;;;;;7570845;19;20029;-73
2023/04/22 00:13:13;;;;;;;7.55;3.42;;;9.30;99.90;;;;;;7573979;19;20019;-71
2023/04/22 00:15:46;;;;;;;6.10;3.55;;;9.30;99.90;;;;;;7577255;19;20018;-71
2023/04/22 00:18:18;;;;;;;8.15;3.40;;;9.30;99.90;;;;;;7580195;19;20018;-73
2023/04/22 00:20:50;;;;;;;6.35;3.30;;;9.20;99.90;;;;;;7574102;19;20558;-72
2023/04/22 00:23:23;;;;;;;4.43;3.30;;;9.20;99.90;;;;;;7569120;19;20185;-72
2023/04/22 00:25:55;;;;;;;6.10;3.20;;;9.10;99.90;;;;;;7576019;19;20106;-73
2023/04/22 00:28:28;;;;;;;6.57;3.23;;;9.10;99.90;;;;;;7567636;19;20010;-74
2023/04/22 00:31:02;;;;;;;7.10;3.47;;;9.20;99.90;;;;;;7577491;19;21060;-72
2023/04/22 00:33:34;;;;;;;4.25;2.85;;;9.10;99.90;;;;;;7579394;19;21171;-72
2023/04/22 00:36:06;;;;;;;6.93;3.20;;;9.00;99.90;;;;;;7564388;19;20023;-73
2023/04/22 00:38:40;;;;;;;5.40;3.30;;;9.00;99.90;;;;;;7569441;19;20033;-73
2023/04/22 00:41:13;;;;;;;4.45;3.30;;;8.90;99.90;;;;;;7563739;19;20024;-74
2023/04/22 00:43:45;;;;;;;9.30;3.20;;;8.90;99.90;;;;;;7566936;19;21004;-72
2023/04/22 00:46:19;;;;;;;4.45;2.80;;;8.90;99.90;;;;;;7562605;19;20048;-72
2023/04/22 00:48:51;;;;;;;;;;;8.90;99.90;;;;;;7582768;19;20033;-73
2023/04/22 00:51:24;;;;;;;6.43;3.30;;;8.80;99.90;;;;;;7572959;19;20054;-73
2023/04/22 00:53:57;;;;;;;5.30;2.85;;;8.80;99.90;;;;;;7571505;19;20019;-73
2023/04/22 00:56:32;;;;;;;6.05;3.42;;;8.70;99.90;;;;;;7568673;19;20014;-74
2023/04/22 00:59:04;;;;;;;4.90;3.33;;;8.50;99.90;;;;;;7572994;19;20014;-73
2023/04/22 01:01:37;;;;;;;4.57;3.42;;;8.60;99.90;;;;;;7572460;19;20025;-74
2023/04/22 01:04:12;;;;;;;6.17;3.90;;;8.50;99.90;;;;;;7572967;19;20015;-73
2023/04/22 01:06:46;;;;;;;3.72;3.00;;;8.50;99.90;;;;;;7560187;19;20022;-73
2023/04/22 01:09:19;;;;;;;5.75;3.10;;;8.50;99.90;;;;;;7593481;19;20025;-73
2023/04/22 01:11:51;;;;;;;4.45;2.75;;;8.50;99.90;;;;;;7577337;19;20022;-74
2023/04/22 01:14:24;;;;;;;8.20;3.20;;;8.50;99.90;;;;;;7577712;19;20026;-73
2023/04/22 01:16:56;;;;;;;5.68;3.28;;;8.40;99.90;;;;;;7568206;19;20033;-73
2023/04/22 01:19:29;;;;;;;8.77;3.30;;;8.50;99.90;;;;;;7587927;19;20827;-72
2023/04/22 01:22:02;;;;;;;6.23;3.93;;;8.40;99.90;;;;;;7565232;19;20026;-73
2023/04/22 01:24:34;;;;;;;6.80;3.00;;;8.40;99.90;;;;;;7590609;19;20030;-73
2023/04/22 01:27:08;;;;;;;5.13;3.90;;;8.20;99.90;;;;;;7561150;19;20022;-72
2023/04/22 01:29:40;;;;;;;7.55;3.47;;;8.30;99.90;;;;;;7566821;19;20022;-73
2023/04/22 01:32:13;;;;;;;10.38;4.00;;;8.30;99.90;;;;;;7585847;19;20117;-73
2023/04/22 01:34:46;;;;;;;6.15;3.97;;;8.20;99.90;;;;;;7569107;19;20095;-73
2023/04/22 01:37:19;;;;;;;5.90;3.88;;;8.20;99.90;;;;;;7576172;19;20015;-73
2023/04/22 01:39:51;;;;;;;5.70;3.85;;;8.20;99.90;;;;;;7570196;19;20097;-73
2023/04/22 01:42:24;;;;;;;5.63;3.78;;;8.20;99.90;;;;;;7583008;19;21115;-73
2023/04/22 01:44:57;;;;;;;6.38;4.20;;;8.30;99.90;;;;;;7579481;19;20510;-72
2023/04/22 01:47:29;;;;;;;6.37;4.57;;;8.40;99.90;;;;;;7583456;19;20324;-73
2023/04/22 01:50:02;;;;;;;4.80;3.92;;;8.40;99.90;;;;;;7559322;19;22336;-72
2023/04/22 01:52:35;;;;;;;4.63;3.67;;;8.40;99.90;;;;;;7576014;19;20089;-72
2023/04/22 01:55:08;;;;;;;;;;;8.20;99.90;;;;;;7574977;19;20018;-73
2023/04/22 01:57:40;;;;;;;7.38;3.75;;;8.20;99.90;;;;;;7575708;19;21571;-72
2023/04/22 02:00:13;;;;;;;7.00;3.67;;;8.20;99.90;;;;;;7583876;19;21233;-73
2023/04/22 02:02:49;;;;;;;6.13;4.03;;;8.10;99.90;;;;;;7572080;19;20075;-72
2023/04/22 02:05:21;;;;;;;9.80;3.63;;;7.90;99.90;;;;;;7572564;19;20037;-72
2023/04/22 02:07:54;;;;;;;6.43;3.42;;;7.90;99.90;;;;;;7564501;19;20016;-73
2023/04/22 02:10:26;;;;;;;5.07;3.80;;;7.90;99.90;;;;;;7578084;19;20021;-73
2023/04/22 02:12:58;;;;;;;8.90;3.38;;;7.90;99.90;;;;;;7571068;19;20021;-73
2023/04/22 02:15:30;;;;;;;7.38;3.72;;;8.00;99.90;;;;;;7573516;19;20094;-73
2023/04/22 02:18:03;;;;;;;5.45;3.67;;;7.90;99.90;;;;;;7565965;19;20134;-73
2023/04/22 02:20:35;;;;;;;5.03;3.72;;;7.90;99.90;;;;;;7576274;19;20141;-72
2023/04/22 02:23:07;;;;;;;4.82;3.78;;;7.90;99.90;;;;;;7559902;19;20103;-72
2023/04/22 02:25:39;;;;;;;5.45;3.90;;;7.70;99.90;;;;;;7564631;19;20046;-72
2023/04/22 02:28:12;;;;;;;6.43;3.75;;;7.60;99.90;;;;;;7550110;19;21085;-73
2023/04/22 02:30:45;;;;;;;6.82;4.05;;;7.70;99.90;;;;;;7570811;19;20043;-73
2023/04/22 02:33:18;;;;;;;5.85;3.53;;;7.60;99.90;;;;;;7566755;19;20015;-73
2023/04/22 02:35:51;;;;;;;6.80;3.95;;;7.70;99.90;;;;;;7565093;19;20050;-73
2023/04/22 02:38:23;;;;;;;5.43;3.67;;;7.70;99.90;;;;;;7556016;19;20034;-73
2023/04/22 02:40:55;;;;;;;4.35;3.30;;;7.60;99.90;;;;;;7577536;19;20026;-72
2023/04/22 02:43:27;;;;;;;6.40;3.80;;;7.60;99.90;;;;;;7574720;19;20022;-72
2023/04/22 02:45:59;;;;;;;5.70;3.75;;;7.60;99.90;;;;;;7563632;19;20021;-73
2023/04/22 02:48:32;;;;;;;5.97;4.38;;;7.80;99.90;;;;;;7579969;19;20167;-73
2023/04/22 02:51:05;;;;;;;6.15;4.20;;;7.90;99.90;;;;;;7575887;19;20057;-73
2023/04/22 02:53:37;;;;;;;7.40;4.60;;;7.80;99.90;;;;;;7564348;19;20129;-73
2023/04/22 02:56:09;;;;;;;5.55;3.88;;;7.70;99.90;;;;;;7568704;19;20040;-71
2023/04/22 02:58:41;;;;;;;5.85;4.35;;;7.60;99.90;;;;;;7572303;19;20049;-73
2023/04/22 03:01:13;;;;;;;5.45;3.85;;;7.60;99.90;;;;;;7566994;19;20019;-72
2023/04/22 03:03:46;;;;;;;6.05;4.10;;;7.50;99.90;;;;;;7556615;19;20060;-73
2023/04/22 03:06:24;;;;;;;6.55;4.03;;;7.50;99.90;;;;;;7560454;19;20850;-72
2023/04/22 03:08:56;;;;;;;6.60;4.03;;;7.40;99.90;;;;;;7574773;19;20051;-72
2023/04/22 03:11:28;;;;;;;7.93;4.60;;;7.50;99.90;;;;;;7568989;19;20053;-73
2023/04/22 03:14:01;;;;;;;8.13;4.10;;;7.40;99.90;;;;;;7562628;19;20211;-73
2023/04/22 03:16:33;;;;;;;5.43;3.88;;;7.30;99.90;;;;;;7569515;19;21003;-73
2023/04/22 03:19:08;;;;;;;5.47;4.03;;;7.30;99.90;;;;;;7578424;19;20018;-73
2023/04/22 03:21:41;;;;;;;6.95;4.50;;;7.40;99.90;;;;;;7555680;19;20044;-72
2023/04/22 03:24:13;;;;;;;6.30;3.47;;;7.30;99.90;;;;;;7567299;19;20011;-74
2023/04/22 03:26:51;;;;;;;7.28;4.30;;;7.30;99.90;;;;;;7556448;19;20050;-74
2023/04/22 03:29:24;;;;;;;7.97;4.15;;;7.30;99.90;;;;;;7578325;19;20759;-74
2023/04/22 03:31:56;;;;;;;6.18;4.60;;;7.20;99.90;;;;;;7554346;19;20086;-72
2023/04/22 03:34:28;;;;;;;5.43;4.18;;;7.30;99.90;;;;;;7561791;19;20145;-72
2023/04/22 03:37:00;;;;;;;6.93;3.90;;;7.30;99.90;;;;;;7568177;19;20119;-72
2023/04/22 03:39:33;;;;;;;7.03;4.05;;;7.30;99.90;;;;;;7561633;19;20062;-74
2023/04/22 03:42:05;;;;;;;5.05;4.05;;;7.40;99.90;;;;;;7545264;19;20018;-72
2023/04/22 03:44:40;;;;;;;5.05;3.85;;;7.40;99.90;;;;;;7571431;19;20597;-73
2023/04/22 03:47:13;;;;;;;6.75;3.70;;;7.30;99.90;;;;;;7539123;19;20015;-72
2023/04/22 03:49:52;;;;;;;4.93;3.75;;;7.20;99.90;;;;;;7559298;19;20351;-72
2023/04/22 03:52:24;;;;;;;4.50;3.47;;;7.10;99.90;;;;;;7569705;19;20051;-72
2023/04/22 03:55:02;;;;;;;6.68;3.97;;;7.10;99.90;;;;;;7572046;19;20138;-72
2023/04/22 03:57:35;;;;;;;4.97;3.50;;;7.10;99.90;;;;;;7571837;19;20018;-72
2023/04/22 04:00:08;;;;;;;5.88;3.78;;;7.10;99.90;;;;;;7573941;19;20680;-73
2023/04/22 04:02:45;;;;;;;8.93;3.92;;;7.10;99.90;;;;;;7563747;19;20043;-74
2023/04/22 04:05:21;;;;;;;5.07;3.72;;;7.10;99.90;;;;;;7584711;19;20564;-73
2023/04/22 04:07:53;;;;;;;4.68;3.58;;;7.00;99.90;;;;;;7574274;19;20022;-73
2023/04/22 04:10:27;;;;;;;8.63;4.18;;;6.90;99.90;;;;;;7573812;19;20411;-72
2023/04/22 04:13:01;;;;;;;9.98;3.90;;;6.80;99.90;;;;;;7542075;19;20021;-72
2023/04/22 04:15:39;;;;;;;5.55;3.45;;;6.80;99.90;;;;;;7565047;19;20030;-72
2023/04/22 04:18:12;;;;;;;7.70;3.92;;;6.70;99.90;;;;;;7553012;19;20010;-73
2023/04/22 04:20:45;;;;;;;5.05;3.63;;;6.70;99.90;;;;;;7559114;19;20015;-72
2023/04/22 04:23:17;;;;;;;7.43;3.55;;;6.80;99.90;;;;;;7553458;19;20648;-72
2023/04/22 04:25:50;;;;;;;7.57;3.78;;;6.90;99.90;;;;;;7543951;19;20051;-72
2023/04/22 04:28:24;;;;;;;4.82;3.33;;;6.90;99.90;;;;;;7559526;19;20561;-72
2023/04/22 04:30:57;;;;;;;5.87;3.93;;;6.80;99.90;;;;;;7536231;19;20364;-71
2023/04/22 04:33:35;;;;;;;3.97;2.95;;;6.70;99.90;;;;;;7534863;19;20011;-72
2023/04/22 04:36:09;;;;;;;4.97;3.15;;;6.80;99.90;;;;;;7559379;19;20014;-72
2023/04/22 04:38:41;;;;;;;6.17;3.23;;;7.00;99.90;;;;;;7545726;19;20022;-72
2023/04/22 04:41:14;;;;;;;9.25;3.88;;;7.10;99.90;;;;;;7556873;19;20354;-72
2023/04/22 04:43:46;;;;;;;5.47;3.40;;;7.10;99.90;;;;;;7564942;19;20015;-72
2023/04/22 04:46:36;;;;;;;4.53;3.20;;;7.20;99.90;;;;;;7586049;19;20041;-72
2023/04/22 04:49:11;;;;;;;4.50;2.97;;;7.10;99.90;;;;;;7549884;19;20015;-72
2023/04/22 04:52:00;;;;;;;4.47;3.25;;;7.00;99.90;;;;;;7570502;19;20037;-70
2023/04/22 04:54:33;;;;;;;4.55;3.03;;;6.90;99.90;;;;;;7552723;19;20018;-73
2023/04/22 04:57:06;;;;;;;4.93;3.05;;;7.10;99.90;;;;;;7548540;19;20996;-72
2023/04/22 04:59:38;;;;;;;4.63;3.42;;;7.10;99.90;;;;;;7568410;19;20490;-72
2023/04/22 05:02:11;;;;;;;5.40;3.23;;;7.10;99.90;;;;;;7577006;19;20509;-72
2023/04/22 05:04:45;;;;;;;5.82;3.40;;;7.20;99.90;;;;;;7567790;19;20018;-72
2023/04/22 05:07:17;;;;;;;4.17;3.20;;;7.40;99.90;;;;;;7566959;19;20624;-72
2023/04/22 05:09:51;;;;;;;3.97;2.90;;;7.50;99.90;;;;;;7565429;19;20021;-72
2023/04/22 05:12:23;;;;;;;5.07;3.30;;;7.70;99.90;;;;;;7553293;19;20018;-72
2023/04/22 05:14:55;;;;;;;4.35;2.75;;;7.70;99.90;;;;;;7571919;19;20018;-72
2023/04/22 05:17:27;;;;;;;6.15;2.97;;;7.80;99.90;;;;;;7560930;19;20020;-72
2023/04/22 05:20:00;;;;;;;3.95;3.08;;;7.90;99.90;;;;;;7563003;19;20026;-74
2023/04/22 05:22:35;;;;;;;4.68;3.25;;;7.90;99.90;;;;;;7536230;19;20137;-71
2023/04/22 05:25:08;;;;;;;5.78;3.00;;;8.00;99.90;;;;;;7563829;19;20846;-71
2023/04/22 05:27:42;;;;;;;4.15;3.10;;;8.10;99.90;;;;;;7561538;19;20010;-71
2023/04/22 05:30:18;;;;;;;4.85;2.85;;;8.10;99.90;;;;;;7572481;19;20015;-73
2023/04/22 05:32:50;;;;;;;;;;;8.00;99.90;;;;;;7568719;19;20025;-73
2023/04/22 05:35:23;;;;;;;5.13;2.83;;;8.00;99.90;;;;;;7556067;19;19922;-73
2023/04/22 05:37:55;;;;;;;4.13;2.83;;;8.00;99.90;;;;;;7565276;19;20015;-72
2023/04/22 05:40:28;;;;;;;8.60;2.75;;;8.10;99.90;;;;;;7567568;19;20022;-73
2023/04/22 05:43:01;;;;;;;5.50;2.40;;;8.20;99.90;;;;;;7560414;19;20012;-72
2023/04/22 05:45:33;;;;;;;4.43;2.75;;;8.40;99.90;;;;;;7567865;19;20716;-72
2023/04/22 05:48:07;;;;;;;3.03;2.33;;;8.50;99.90;;;;;;7584012;19;20650;-71
2023/04/22 05:50:45;;;;;;;7.97;2.10;;;8.70;99.90;;;;;;7569743;19;20094;-72
2023/04/22 05:53:19;;;;;;;7.57;2.53;;;8.90;99.90;;;;;;7046701;19;9999916;-71
2023/04/22 05:55:52;;;;;;;3.20;2.03;;;9.00;99.90;;;;;;7568813;19;20026;-73
2023/04/22 05:58:24;;;;;;;3.08;2.45;;;9.00;99.90;;;;;;7559489;19;20014;-73
2023/04/22 06:01:04;;;;;;;4.57;2.20;;;9.00;99.90;;;;;;7563649;19;20018;-73
2023/04/22 06:03:59;;;;;;;8.15;2.40;;;9.20;99.90;;;;;;7564136;19;20018;-74
2023/04/22 06:06:32;;;;;;;4.68;2.10;;;9.30;99.90;;;;;;7566016;19;20030;-73
2023/04/22 06:09:06;;;;;;;8.32;2.05;;;9.40;99.90;;;;;;7575000;19;20038;-74
2023/04/22 06:11:39;;;;;;;3.95;1.98;;;9.60;99.90;;;;;;7575801;19;20015;-73
2023/04/22 06:14:12;;;;;;;2.33;2.08;;;9.70;99.90;;;;;;7589621;19;20023;-72
2023/04/22 06:16:46;;;;;;;3.00;2.40;;;9.80;99.90;;;;;;7552856;19;21303;-72
2023/04/22 06:19:18;;;;;;;2.85;2.00;;;9.90;99.90;;;;;;7565116;19;20014;-72
2023/04/22 06:21:52;;;;;;;3.53;1.97;;;10.00;99.90;;;;;;7565181;19;20093;-73
2023/04/22 06:24:24;;;;;;;3.50;2.28;;;10.20;99.90;;;;;;7579078;19;20855;-74
2023/04/22 06:26:58;;;;;;;6.85;2.38;;;10.30;99.90;;;;;;7582289;19;20021;-73
2023/04/22 06:29:33;;;;;;;3.58;2.20;;;10.50;99.90;;;;;;7595604;19;20056;-73
2023/04/22 06:32:05;;;;;;;3.08;1.90;;;10.60;99.90;;;;;;7569787;19;20601;-72
2023/04/22 06:34:37;;;;;;;4.28;2.20;;;10.80;99.90;;;;;;7568885;19;20226;-73
2023/04/22 06:37:10;;;;;;;3.90;2.15;;;11.00;99.90;;;;;;7564189;19;20030;-73
2023/04/22 06:39:42;;;;;;;5.20;1.80;;;11.10;99.90;;;;;;7585723;19;20028;-72
2023/04/22 06:42:43;;;;;;;6.70;1.80;;;11.30;99.90;;;;;;7573739;19;20010;-74
2023/04/22 06:45:35;;;;;;;7.47;1.85;;;11.50;99.90;;;;;;7566692;19;20463;-74
2023/04/22 06:48:26;;;;;;;2.63;1.58;;;11.70;97.60;;;;;;7561290;19;20010;-74
2023/04/22 06:51:28;;;;;;;4.13;1.55;;;11.90;95.50;;;;;;7583664;19;20490;-74
2023/04/22 06:54:00;;;;;;;3.13;1.70;;;12.10;93.60;;;;;;7569558;19;20010;-73
2023/04/22 06:56:32;;;;;;;2.70;1.50;;;12.20;93.80;;;;;;7556371;19;20788;-73
2023/04/22 06:59:06;;;;;;;3.50;1.50;;;12.40;92.90;;;;;;7566234;19;20014;-73
2023/04/22 07:01:39;;;;;;;4.28;1.58;;;12.60;92.40;;;;;;7570754;19;20147;-72
2023/04/22 07:04:12;;;;;;;3.13;1.55;;;12.70;91.40;;;;;;7575383;19;20018;-73
2023/04/22 07:06:44;;;;;;;12.15;1.83;;;12.90;90.80;;;;;;7566613;19;20680;-73
2023/04/22 07:09:17;;;;;;;2.10;1.40;;;13.10;90.10;;;;;;7568348;19;20014;-72
2023/04/22 07:11:49;;;;;;;6.13;1.40;;;13.20;89.10;;;;;;7576354;19;20135;-72
2023/04/22 07:14:26;;;;;;;6.90;1.95;;;13.30;87.00;;;;;;7563678;19;20018;-73
2023/04/22 07:16:59;;;;;;;3.50;1.23;;;13.50;87.30;;;;;;7534372;19;20022;-74
2023/04/22 07:19:31;;;;;;;1.90;1.25;;;13.70;85.20;;;;;;7578040;19;20161;-73
2023/04/22 07:22:06;;;;;;;1.83;1.40;;;13.80;82.50;;;;;;7586492;19;20019;-73
2023/04/22 07:24:38;;;;;;;2.85;1.60;;;13.90;84.00;;;;;;7580543;19;20010;-73
2023/04/22 07:27:11;;;;;;;;;;;14.10;81.50;;;;;;7551156;19;20026;-73
2023/04/22 07:29:44;;;;;;;1.80;1.30;;;14.30;82.50;;;;;;7587806;19;19922;-73
2023/04/22 07:32:16;;;;;;;1.27;1.00;;;14.30;79.10;;;;;;7528825;19;21439;-74
2023/04/22 07:34:48;;;;;;;7.13;1.52;;;14.30;78.60;;;;;;7550386;19;20024;-73
2023/04/22 07:37:22;;;;;;;5.60;1.55;;;14.50;79.90;;;;;;7542704;19;20024;-74
2023/04/22 07:39:54;;;;;;;3.00;1.25;;;14.70;80.20;;;;;;7554129;19;20434;-72
2023/04/22 07:42:26;;;;;;;1.50;1.13;;;14.80;75.90;;;;;;7557101;19;20015;-72
2023/04/22 07:44:58;;;;;;;14.25;1.20;;;14.80;76.10;;;;;;7571172;19;20141;-73
2023/04/22 07:47:31;;;;;;;1.50;1.08;;;15.00;77.80;;;;;;7563969;19;20019;-73
2023/04/22 07:50:03;;;;;;;4.30;1.02;;;15.10;75.10;;;;;;7576054;19;20511;-72
2023/04/22 07:52:36;;;;;;;1.84;1.12;;;15.20;70.40;;;;;;6541288;19;10001150;-73
2023/04/22 07:55:08;;;;;;;1.63;1.00;;;15.30;72.00;;;;;;7088407;19;10000608;-74
2023/04/22 07:57:40;;;;;;;2.25;1.30;;;15.40;72.10;;;;;;7584830;19;20055;-73
2023/04/22 08:00:13;;;;;;;1.80;0.93;;;15.50;70.50;;;;;;7570466;19;21380;-71
2023/04/22 08:02:46;;;;;;;;;;;15.50;69.40;;;;;;7566319;19;20055;-72
2023/04/22 08:05:18;;;;;;;14.68;1.23;;;15.70;69.70;;;;;;7514299;19;19942;-72
2023/04/22 08:07:51;;;;;;;2.95;1.00;;;16.00;68.50;;;;;;7534665;19;20014;-72
2023/04/22 08:10:24;;;;;;;25.70;1.48;;;16.00;67.40;;;;;;7517510;19;20062;-73
2023/04/22 08:12:56;;;;;;;3.65;1.05;;;16.10;70.20;;;;;;7567024;19;20504;-72
2023/04/22 08:15:29;;;;;;;2.22;1.10;;;16.30;69.50;;;;;;7520677;19;20425;-73
2023/04/22 08:18:01;;;;;;;2.30;0.77;;;16.40;70.50;;;;;;7565011;19;20017;-73
2023/04/22 08:20:34;;;;;;;0.80;0.77;;;16.30;69.80;;;;;;7562752;19;20624;-72
2023/04/22 08:23:06;;;;;;;3.80;1.10;;;16.50;64.10;;;;;;7559407;19;20022;-73
2023/04/22 08:25:38;;;;;;;1.33;0.90;;;16.50;62.30;;;;;;7569525;19;20021;-72
2023/04/22 08:28:10;;;;;;;3.55;1.00;;;16.60;62.50;;;;;;7482706;19;20014;-73
2023/04/22 08:30:43;;;;;;;1.30;1.00;;;16.60;67.40;;;;;;7564268;19;20048;-74
2023/04/22 08:33:15;;;;;;;1.05;0.93;;;16.70;68.70;;;;;;7585276;19;20018;-73
2023/04/22 08:35:48;;;;;;;1.10;0.90;;;16.80;68.70;;;;;;7554083;19;20007;-73
2023/04/22 08:38:23;;;;;;;3.25;1.10;;;16.80;68.60;;;;;;7518562;19;20656;-74
2023/04/22 08:40:57;;;;;;;1.42;1.08;;;16.90;69.00;;;;;;7531900;19;21180;-74
2023/04/22 08:43:31;;;;;;;1.35;1.15;;;17.00;68.90;;;;;;7550978;19;20044;-75
2023/04/22 08:46:04;;;;;;;1.70;1.10;;;17.20;69.50;;;;;;7569996;19;20022;-74
2023/04/22 08:48:37;;;;;;;3.50;1.50;;;17.20;69.00;;;;;;7558408;19;20494;-74
2023/04/22 08:51:10;;;;;;;1.63;1.08;;;17.20;70.00;;;;;;7563417;19;20029;-73
2023/04/22 08:53:45;;;;;;;1.52;1.05;;;17.40;67.20;;;;;;7553505;19;20055;-73
2023/04/22 08:56:18;;;;;;;3.55;1.00;;;17.40;67.80;;;;;;7565739;19;20018;-74
2023/04/22 08:58:51;;;;;;;1.30;1.20;;;17.50;67.50;;;;;;7557973;19;20406;-74
2023/04/22 09:01:24;;;;;;;1.35;1.08;;;17.50;68.00;;;;;;7543614;19;20014;-73
2023/04/22 09:04:01;;;;;;;3.40;1.13;;;17.60;66.70;;;;;;7567047;19;20547;-73
2023/04/22 09:06:33;;;;;;;14.30;1.42;;;17.70;67.60;;;;;;7573521;19;21130;-73
2023/04/22 09:09:07;;;;;;;1.33;1.00;;;17.70;66.60;;;;;;7568704;19;21102;-73
2023/04/22 09:11:40;;;;;;;1.38;1.27;;;17.70;65.90;;;;;;7534142;19;20021;-74
2023/04/22 09:14:12;;;;;;;1.30;1.10;;;17.80;66.90;;;;;;7565424;19;20082;-75
2023/04/22 09:16:48;;;;;;;2.20;0.90;;;17.70;65.50;;;;;;7580385;19;20010;-73
2023/04/22 09:19:24;;;;;;;1.33;1.05;;;17.60;63.20;;;;;;7553792;19;20111;-72
2023/04/22 09:21:59;;;;;;;1.35;1.25;;;17.70;64.30;;;;;;7552459;19;20018;-74
2023/04/22 09:24:31;;;;;;;4.20;1.08;;;17.80;64.70;;;;;;7537957;19;20720;-75
2023/04/22 09:27:04;;;;;;;2.92;1.33;;;17.80;65.50;;;;;;7565792;19;20014;-74
2023/04/22 09:29:36;;;;;;;4.53;1.17;;;17.90;65.00;;;;;;7564417;19;20014;-73
2023/04/22 09:32:10;;;;;;;3.80;1.37;;;18.00;63.30;;;;;;7534487;19;20029;-74
2023/04/22 09:34:50;;;;;;;1.60;1.30;;;18.00;62.00;;;;;;7545191;19;20011;-75
2023/04/22 09:37:26;;;;;;;2.70;1.17;;;18.10;62.90;;;;;;7544720;19;20018;-74
2023/04/22 09:40:20;;;;;;;1.67;1.30;;;18.00;60.40;;;;;;7567561;19;20043;-72
2023/04/22 09:42:54;;;;;;;2.88;0.93;;;18.10;61.70;;;;;;7551086;19;20097;-74
2023/04/22 09:45:38;;;;;;;2.45;1.23;;;18.10;58.10;;;;;;7528809;19;20014;-73
2023/04/22 09:48:12;;;;;;;2.28;1.00;;;18.20;60.80;;;;;;7541239;19;20019;-73
2023/04/22 09:50:46;;;;;;;5.20;1.30;;;18.20;60.10;;;;;;7517728;19;20026;-71
2023/04/22 09:53:20;;;;;;;2.28;1.40;;;18.30;61.20;;;;;;7478000;19;20597;-73
2023/04/22 09:55:54;;;;;;;1.58;1.30;;;18.30;59.30;;;;;;7465723;19;20581;-74
2023/04/22 09:58:26;;;;;;;1.58;1.25;;;18.30;61.10;;;;;;7472334;19;20041;-74
2023/04/22 10:00:59;;;;;;;1.15;1.05;;;18.40;59.40;;;;;;7496817;19;20037;-74
2023/04/22 10:03:31;;;;;;;1.15;1.05;;;18.40;58.10;;;;;;7466873;19;20569;-75
2023/04/22 10:06:05;;;;;;;2.67;1.27;;;18.50;60.00;;;;;;7504596;19;20029;-74
2023/04/22 10:08:37;;;;;;;3.72;1.30;;;18.60;61.00;;;;;;7500794;19;21250;-75
2023/04/22 10:11:10;;;;;;;1.65;1.10;;;18.70;58.90;;;;;;7518080;19;20062;-74
2023/04/22 10:13:42;;;;;;;1.33;1.10;;;18.60;58.30;;;;;;7535336;19;20021;-75
2023/04/22 10:16:16;;;;;;;1.65;1.25;;;18.70;59.50;;;;;;7529988;19;20022;-73
2023/04/22 10:18:50;;;;;;;2.25;1.42;;;18.80;60.00;;;;;;7561320;19;20058;-75
2023/04/22 10:21:25;;;;;;;2.35;1.52;;;18.90;60.70;;;;;;7579676;19;20089;-75
2023/04/22 10:23:59;;;;;;;1.35;0.95;;;19.00;59.80;;;;;;7552313;19;24896;-77
2023/04/22 10:26:58;;;;;;;1.20;1.10;;;19.00;59.00;;;;;;7579742;19;20869;-74
2023/04/22 10:29:41;;;;;;;1.60;1.23;;;19.00;58.30;;;;;;7562333;19;20010;-76
2023/04/22 10:32:16;;;;;;;3.07;1.20;;;19.10;57.50;;;;;;7577240;19;20149;-75
2023/04/22 10:34:49;;;;;;;1.30;1.08;;;19.20;58.20;;;;;;7555006;19;20015;-75
2023/04/22 10:37:24;;;;;;;1.13;0.93;;;19.30;57.70;;;;;;7573262;19;20018;-75
2023/04/22 10:40:15;;;;;;;6.97;1.25;;;19.30;57.20;;;;;;7561353;19;20018;-74
2023/04/22 10:42:54;;;;;;;1.02;0.93;;;19.30;56.60;;;;;;7554559;19;20025;-75
2023/04/22 10:45:31;;;;;;;1.90;1.23;;;19.30;56.80;;;;;;7571806;19;20019;-74
2023/04/22 10:48:04;;;;;;;1.33;1.23;;;19.50;57.40;;;;;;7594495;19;20144;-75
2023/04/22 10:50:38;;;;;;;1.60;0.90;;;19.50;55.50;;;;;;7579962;19;20065;-75
2023/04/22 10:53:36;;;;;;;1.40;1.00;;;19.60;55.90;;;;;;7573770;19;20473;-73
2023/04/22 10:56:19;;;;;;;0.70;0.70;;;19.70;54.90;;;;;;7595366;19;20018;-77
2023/04/22 10:58:54;;;;;;;1.20;1.00;;;19.80;54.90;;;;;;7589012;19;20018;-77
2023/04/22 11:01:27;;;;;;;2.35;1.00;;;19.90;55.90;;;;;;7596922;19;20019;-74
2023/04/22 11:04:22;;;;;;;1.07;1.00;;;20.20;54.70;;;;;;7584646;19;20146;-76
2023/04/22 11:07:21;;;;;;;1.75;1.00;;;20.50;53.20;;;;;;7587689;19;20042;-75
2023/04/22 11:10:42;;;;;;;1.40;0.85;;;21.00;50.90;;;;;;7589869;19;20082;-74
2023/04/22 11:13:21;;;;;;;2.28;1.00;;;21.30;51.00;;;;;;7583743;19;20625;-75
2023/04/22 11:15:54;;;;;;;0.70;0.70;;;21.40;49.40;;;;;;7591401;19;21036;-75
2023/04/22 11:18:26;;;;;;;1.10;1.00;;;21.70;49.70;;;;;;7581752;19;20049;-74
2023/04/22 11:21:05;;;;;;;1.30;0.93;;;22.00;47.60;;;;;;7577602;19;20021;-76
2023/04/22 11:23:37;;;;;;;3.33;1.10;;;22.20;47.50;;;;;;7578993;19;20014;-75
2023/04/22 11:26:10;;;;;;;5.70;1.10;;;22.60;46.30;;;;;;7579577;19;21010;-76
2023/04/22 11:28:46;;;;;;;2.20;1.10;;;22.80;46.30;;;;;;7580487;19;20014;-74
2023/04/22 11:31:19;;;;;;;2.53;0.95;;;23.20;46.60;;;;;;7577051;19;20031;-77
2023/04/22 11:33:51;;;;;;;0.77;0.75;;;23.40;44.90;;;;;;7580169;19;20839;-76
2023/04/22 11:36:24;;;;;;;1.42;0.98;;;23.60;44.80;;;;;;7575300;19;20014;-76
2023/04/22 11:38:58;;;;;;;1.10;0.85;;;23.90;43.20;;;;;;7563074;19;20022;-77
2023/04/22 11:41:30;;;;;;;3.60;1.10;;;24.20;44.40;;;;;;7568484;19;20086;-77
2023/04/22 11:44:03;;;;;;;4.03;1.58;;;24.10;43.60;;;;;;7590049;19;20051;-77
2023/04/22 11:46:38;;;;;;;1.10;0.90;;;24.20;42.70;;;;;;7572000;19;20640;-77
2023/04/22 11:49:17;;;;;;;23.60;1.40;;;24.40;42.80;;;;;;7561449;19;21108;-77
2023/04/22 11:51:56;;;;;;;6.68;1.15;;;24.90;43.70;;;;;;7573374;19;20026;-75
2023/04/22 11:54:36;;;;;;;1.25;0.98;;;24.90;43.20;;;;;;7575197;19;20113;-78
2023/04/22 11:57:10;;;;;;;2.22;0.90;;;25.10;42.40;;;;;;7569380;19;20018;-79
2023/04/22 11:59:43;;;;;;;1.67;1.23;;;25.10;42.40;;;;;;7567793;19;20018;-76
2023/04/22 12:02:16;;;;;;;1.77;1.15;;;25.20;42.90;;;;;;7544839;19;20029;-77
2023/04/22 12:04:48;;;;;;;1.30;1.20;;;25.50;40.80;;;;;;7551889;19;20015;-76
2023/04/22 12:07:20;;;;;;;2.88;1.02;;;25.30;40.60;;;;;;7579202;19;20014;-76
2023/04/22 12:09:53;;;;;;;4.78;1.30;;;25.80;40.40;;;;;;7582931;19;20015;-75
2023/04/22 12:12:26;;;;;;;1.05;0.90;;;26.00;41.20;;;;;;7588497;19;20093;-76
2023/04/22 12:15:09;;;;;;;2.45;1.00;;;25.80;41.60;;;;;;7560286;19;20010;-75
2023/04/22 12:17:45;;;;;;;1.48;0.93;;;26.10;41.20;;;;;;7570215;19;20010;-75
2023/04/22 12:20:18;;;;;;;2.03;0.95;;;26.50;40.50;;;;;;7583170;19;20608;-77
2023/04/22 12:22:51;;;;;;;3.05;1.48;;;26.50;41.10;;;;;;7553874;19;21623;-76
2023/04/22 12:25:24;;;;;;;3.75;1.30;;;26.90;41.20;;;;;;7568361;19;20033;-77
2023/04/22 12:27:56;;;;;;;1.48;1.13;;;26.90;40.90;;;;;;7575606;19;21713;-77
2023/04/22 12:30:29;;;;;;;1.73;1.27;;;27.10;39.00;;;;;;7583136;19;20023;-77
2023/04/22 12:33:01;;;;;;;2.00;1.27;;;26.90;38.50;;;;;;7583384;19;20014;-77
2023/04/22 12:35:33;;;;;;;1.85;1.10;;;26.90;39.20;;;;;;7574513;19;20025;-78
2023/04/22 12:38:06;;;;;;;1.98;1.27;;;27.10;41.20;;;;;;7601497;19;20015;-74
2023/04/22 12:40:38;;;;;;;1.67;1.30;;;26.60;38.60;;;;;;7588240;19;20075;-73
2023/04/22 12:43:11;;;;;;;1.58;1.10;;;26.70;38.30;;;;;;7543068;19;20064;-75
2023/04/22 12:45:43;;;;;;;20.48;1.38;;;26.80;39.50;;;;;;7580857;19;20651;-76
2023/04/22 12:48:15;;;;;;;4.60;1.30;;;26.60;39.60;;;;;;7578632;19;20015;-75
2023/04/22 12:50:47;;;;;;;1.83;1.33;;;26.40;39.70;;;;;;7565252;19;20038;-78
2023/04/22 12:53:20;;;;;;;2.92;1.38;;;26.40;38.70;;;;;;7595457;19;20014;-77
2023/04/22 12:55:53;;;;;;;3.97;1.40;;;26.30;39.50;;;;;;7597409;19;20938;-76
2023/04/22 12:58:25;;;;;;;2.77;1.20;;;26.40;39.00;;;;;;7596389;19;20010;-76
2023/04/22 13:00:58;;;;;;;3.25;1.20;;;26.40;38.70;;;;;;7578342;19;20668;-76
2023/04/22 13:03:30;;;;;;;5.30;1.30;;;26.40;38.70;;;;;;7588674;19;20549;-77
2023/04/22 13:06:03;;;;;;;1.48;1.30;;;26.40;39.40;;;;;;7580101;19;20047;-76
2023/04/22 13:08:35;;;;;;;3.60;1.40;;;26.70;39.10;;;;;;7565807;19;20490;-75
2023/04/22 13:11:07;;;;;;;1.50;1.40;;;26.80;38.80;;;;;;7576729;19;22258;-75
2023/04/22 13:13:40;;;;;;;1.50;1.10;;;26.80;38.70;;;;;;7570541;19;20022;-76
2023/04/22 13:16:12;;;;;;;2.65;1.13;;;26.60;41.10;;;;;;7553783;19;20098;-75
2023/04/22 13:18:44;;;;;;;3.97;1.23;;;26.90;39.90;;;;;;7564816;19;20032;-77
2023/04/22 13:21:16;;;;;;;1.77;1.38;;;26.90;39.60;;;;;;7587388;19;20015;-76
2023/04/22 13:23:48;;;;;;;1.50;1.25;;;27.00;39.30;;;;;;7592038;19;20981;-76
2023/04/22 13:26:21;;;;;;;1.90;1.08;;;27.10;38.40;;;;;;7573893;19;20056;-76
2023/04/22 13:28:53;;;;;;;4.93;1.10;;;27.00;38.50;;;;;;7573911;19;20462;-75